sensor_id;sensor_type;location;lat;lon;timestamp;P1;durP1;ratioP1;P2;durP2;ratioP2
32365;SDS011;18837;46.832;16.838;2022-12-29T00:02:25;8.10;;;6.00;;
32365;SDS011;18837;46.832;16.838;2022-12-29T00:04:51;7.07;;;5.67;;
32365;SDS011;18837;46.832;16.838;2022-12-29T00:07:17;8.67;;;6.73;;
32365;SDS011;18837;46.832;16.838;2022-12-29T00:09:43;7.43;;;5.90;;
32365;SDS011;18837;46.832;16.838;2022-12-29T00:12:09;7.57;;;5.80;;
32365;SDS011;18837;46.832;16.838;2022-12-29T00:14:35;8.17;;;5.63;;
32365;SDS011;18837;46.832;16.838;2022-12-29T00:17:19;9.07;;;6.10;;
32365;SDS011;18837;46.832;16.838;2022-12-29T00:19:45;7.37;;;5.27;;
32365;SDS011;18837;46.832;16.838;2022-12-29T00:22:29;7.00;;;5.87;;
32365;SDS011;18837;46.832;16.838;2022-12-29T00:25:13;7.70;;;5.80;;
32365;SDS011;18837;46.832;16.838;2022-12-29T00:27:58;8.37;;;5.53;;
32365;SDS011;18837;46.832;16.838;2022-12-29T00:30:42;6.77;;;5.53;;
32365;SDS011;18837;46.832;16.838;2022-12-29T00:33:30;7.37;;;5.63;;
32365;SDS011;18837;46.832;16.838;2022-12-29T00:36:17;7.93;;;6.00;;
32365;SDS011;18837;46.832;16.838;2022-12-29T00:39:07;9.37;;;6.17;;
32365;SDS011;18837;46.832;16.838;2022-12-29T00:41:52;8.40;;;5.80;;
32365;SDS011;18837;46.832;16.838;2022-12-29T00:44:36;7.10;;;5.93;;
32365;SDS011;18837;46.832;16.838;2022-12-29T00:47:01;6.57;;;5.90;;
32365;SDS011;18837;46.832;16.838;2022-12-29T00:49:29;7.73;;;5.87;;
32365;SDS011;18837;46.832;16.838;2022-12-29T00:51:56;7.47;;;5.90;;
32365;SDS011;18837;46.832;16.838;2022-12-29T00:54:24;7.57;;;5.53;;
32365;SDS011;18837;46.832;16.838;2022-12-29T00:56:50;6.97;;;5.40;;
32365;SDS011;18837;46.832;16.838;2022-12-29T00:59:17;8.23;;;6.17;;
32365;SDS011;18837;46.832;16.838;2022-12-29T01:01:44;6.63;;;5.57;;
32365;SDS011;18837;46.832;16.838;2022-12-29T01:04:11;6.70;;;5.43;;
32365;SDS011;18837;46.832;16.838;2022-12-29T01:06:38;7.47;;;5.77;;
32365;SDS011;18837;46.832;16.838;2022-12-29T01:09:05;7.57;;;5.97;;
32365;SDS011;18837;46.832;16.838;2022-12-29T01:11:50;7.33;;;5.70;;
32365;SDS011;18837;46.832;16.838;2022-12-29T01:14:17;6.67;;;5.47;;
32365;SDS011;18837;46.832;16.838;2022-12-29T01:16:44;7.97;;;5.90;;
32365;SDS011;18837;46.832;16.838;2022-12-29T01:19:10;6.23;;;5.07;;
32365;SDS011;18837;46.832;16.838;2022-12-29T01:21:36;7.70;;;5.77;;
32365;SDS011;18837;46.832;16.838;2022-12-29T01:24:02;7.70;;;5.90;;
32365;SDS011;18837;46.832;16.838;2022-12-29T01:26:28;7.33;;;6.10;;
32365;SDS011;18837;46.832;16.838;2022-12-29T01:28:54;7.67;;;5.50;;
32365;SDS011;18837;46.832;16.838;2022-12-29T01:31:20;7.00;;;5.70;;
32365;SDS011;18837;46.832;16.838;2022-12-29T01:33:46;7.97;;;5.20;;
32365;SDS011;18837;46.832;16.838;2022-12-29T01:36:13;7.10;;;5.60;;
32365;SDS011;18837;46.832;16.838;2022-12-29T01:38:40;6.73;;;5.57;;
32365;SDS011;18837;46.832;16.838;2022-12-29T01:41:07;9.50;;;6.60;;
32365;SDS011;18837;46.832;16.838;2022-12-29T01:43:45;7.83;;;5.63;;
32365;SDS011;18837;46.832;16.838;2022-12-29T01:49:15;7.10;;;5.60;;
32365;SDS011;18837;46.832;16.838;2022-12-29T01:51:45;7.70;;;6.00;;
32365;SDS011;18837;46.832;16.838;2022-12-29T01:54:19;7.77;;;6.00;;
32365;SDS011;18837;46.832;16.838;2022-12-29T01:56:51;6.07;;;5.33;;
32365;SDS011;18837;46.832;16.838;2022-12-29T01:59:19;6.77;;;5.17;;
32365;SDS011;18837;46.832;16.838;2022-12-29T02:01:48;6.83;;;5.57;;
32365;SDS011;18837;46.832;16.838;2022-12-29T02:04:14;7.03;;;5.50;;
32365;SDS011;18837;46.832;16.838;2022-12-29T02:07:23;6.73;;;5.47;;
32365;SDS011;18837;46.832;16.838;2022-12-29T02:09:32;7.80;;;5.37;;
32365;SDS011;18837;46.832;16.838;2022-12-29T02:11:58;7.60;;;5.93;;
32365;SDS011;18837;46.832;16.838;2022-12-29T02:14:25;6.77;;;5.30;;
32365;SDS011;18837;46.832;16.838;2022-12-29T02:17:01;7.97;;;5.97;;
32365;SDS011;18837;46.832;16.838;2022-12-29T02:31:31;7.43;;;5.43;;
32365;SDS011;18837;46.832;16.838;2022-12-29T02:34:26;7.40;;;5.40;;
32365;SDS011;18837;46.832;16.838;2022-12-29T02:37:00;6.87;;;5.80;;
32365;SDS011;18837;46.832;16.838;2022-12-29T02:45:35;7.13;;;6.00;;
32365;SDS011;18837;46.832;16.838;2022-12-29T02:51:01;8.20;;;6.07;;
32365;SDS011;18837;46.832;16.838;2022-12-29T02:53:29;8.43;;;5.77;;
32365;SDS011;18837;46.832;16.838;2022-12-29T02:56:17;8.10;;;6.23;;
32365;SDS011;18837;46.832;16.838;2022-12-29T02:58:42;8.77;;;6.10;;
32365;SDS011;18837;46.832;16.838;2022-12-29T03:12:12;6.70;;;6.00;;
32365;SDS011;18837;46.832;16.838;2022-12-29T03:15:30;8.07;;;6.57;;
32365;SDS011;18837;46.832;16.838;2022-12-29T03:18:23;8.30;;;6.53;;
32365;SDS011;18837;46.832;16.838;2022-12-29T03:21:04;9.17;;;6.23;;
32365;SDS011;18837;46.832;16.838;2022-12-29T03:23:36;8.37;;;6.50;;
32365;SDS011;18837;46.832;16.838;2022-12-29T03:26:06;8.00;;;5.97;;
32365;SDS011;18837;46.832;16.838;2022-12-29T03:28:37;7.17;;;5.90;;
32365;SDS011;18837;46.832;16.838;2022-12-29T03:31:07;9.93;;;6.70;;
32365;SDS011;18837;46.832;16.838;2022-12-29T03:33:34;7.13;;;6.10;;
32365;SDS011;18837;46.832;16.838;2022-12-29T03:36:03;8.53;;;6.70;;
32365;SDS011;18837;46.832;16.838;2022-12-29T03:38:44;7.77;;;6.90;;
32365;SDS011;18837;46.832;16.838;2022-12-29T03:41:23;8.60;;;6.60;;
32365;SDS011;18837;46.832;16.838;2022-12-29T03:43:54;8.37;;;6.77;;
32365;SDS011;18837;46.832;16.838;2022-12-29T03:46:20;8.53;;;6.90;;
32365;SDS011;18837;46.832;16.838;2022-12-29T03:48:46;9.63;;;7.13;;
32365;SDS011;18837;46.832;16.838;2022-12-29T03:51:11;9.20;;;7.00;;
32365;SDS011;18837;46.832;16.838;2022-12-29T03:53:38;8.87;;;7.27;;
32365;SDS011;18837;46.832;16.838;2022-12-29T03:56:03;8.77;;;7.60;;
32365;SDS011;18837;46.832;16.838;2022-12-29T03:58:29;9.90;;;7.40;;
32365;SDS011;18837;46.832;16.838;2022-12-29T04:00:55;8.93;;;7.20;;
32365;SDS011;18837;46.832;16.838;2022-12-29T04:03:21;10.03;;;7.47;;
32365;SDS011;18837;46.832;16.838;2022-12-29T04:05:47;9.93;;;7.40;;
32365;SDS011;18837;46.832;16.838;2022-12-29T04:08:13;11.47;;;7.90;;
32365;SDS011;18837;46.832;16.838;2022-12-29T04:10:39;9.37;;;7.33;;
32365;SDS011;18837;46.832;16.838;2022-12-29T04:13:05;9.60;;;7.87;;
32365;SDS011;18837;46.832;16.838;2022-12-29T04:15:31;10.17;;;7.83;;
32365;SDS011;18837;46.832;16.838;2022-12-29T04:17:57;8.47;;;6.93;;
32365;SDS011;18837;46.832;16.838;2022-12-29T04:20:23;9.90;;;7.57;;
32365;SDS011;18837;46.832;16.838;2022-12-29T04:23:07;10.27;;;7.80;;
32365;SDS011;18837;46.832;16.838;2022-12-29T04:25:33;10.43;;;7.77;;
32365;SDS011;18837;46.832;16.838;2022-12-29T04:27:59;11.23;;;8.03;;
32365;SDS011;18837;46.832;16.838;2022-12-29T04:30:25;9.90;;;7.70;;
32365;SDS011;18837;46.832;16.838;2022-12-29T04:32:50;9.97;;;7.83;;
32365;SDS011;18837;46.832;16.838;2022-12-29T04:35:17;10.00;;;7.80;;
32365;SDS011;18837;46.832;16.838;2022-12-29T04:37:43;11.50;;;8.17;;
32365;SDS011;18837;46.832;16.838;2022-12-29T04:40:09;10.50;;;7.57;;
32365;SDS011;18837;46.832;16.838;2022-12-29T04:42:35;11.37;;;7.77;;
32365;SDS011;18837;46.832;16.838;2022-12-29T04:45:01;10.87;;;7.80;;
32365;SDS011;18837;46.832;16.838;2022-12-29T04:47:27;9.80;;;6.83;;
32365;SDS011;18837;46.832;16.838;2022-12-29T04:49:53;10.73;;;8.27;;
32365;SDS011;18837;46.832;16.838;2022-12-29T04:52:19;10.50;;;7.60;;
32365;SDS011;18837;46.832;16.838;2022-12-29T04:54:44;10.73;;;8.00;;
32365;SDS011;18837;46.832;16.838;2022-12-29T04:57:10;9.97;;;8.40;;
32365;SDS011;18837;46.832;16.838;2022-12-29T04:59:36;10.00;;;7.43;;
32365;SDS011;18837;46.832;16.838;2022-12-29T05:02:01;10.67;;;7.90;;
32365;SDS011;18837;46.832;16.838;2022-12-29T05:04:27;11.17;;;8.03;;
32365;SDS011;18837;46.832;16.838;2022-12-29T05:06:53;11.37;;;8.17;;
32365;SDS011;18837;46.832;16.838;2022-12-29T05:09:18;9.53;;;8.00;;
32365;SDS011;18837;46.832;16.838;2022-12-29T05:11:44;10.77;;;7.57;;
32365;SDS011;18837;46.832;16.838;2022-12-29T05:14:10;10.33;;;8.07;;
32365;SDS011;18837;46.832;16.838;2022-12-29T05:16:36;10.53;;;8.13;;
32365;SDS011;18837;46.832;16.838;2022-12-29T05:19:01;11.07;;;7.70;;
32365;SDS011;18837;46.832;16.838;2022-12-29T05:21:27;10.63;;;8.10;;
32365;SDS011;18837;46.832;16.838;2022-12-29T05:23:53;10.63;;;8.03;;
32365;SDS011;18837;46.832;16.838;2022-12-29T05:26:19;11.47;;;8.30;;
32365;SDS011;18837;46.832;16.838;2022-12-29T05:28:44;13.33;;;8.67;;
32365;SDS011;18837;46.832;16.838;2022-12-29T05:31:10;12.40;;;8.60;;
32365;SDS011;18837;46.832;16.838;2022-12-29T05:33:36;11.10;;;8.33;;
32365;SDS011;18837;46.832;16.838;2022-12-29T05:36:05;10.00;;;8.20;;
32365;SDS011;18837;46.832;16.838;2022-12-29T05:38:32;12.63;;;8.63;;
32365;SDS011;18837;46.832;16.838;2022-12-29T05:40:58;11.97;;;8.53;;
32365;SDS011;18837;46.832;16.838;2022-12-29T05:43:24;11.30;;;8.40;;
32365;SDS011;18837;46.832;16.838;2022-12-29T05:45:50;12.00;;;8.00;;
32365;SDS011;18837;46.832;16.838;2022-12-29T05:48:17;10.50;;;7.87;;
32365;SDS011;18837;46.832;16.838;2022-12-29T05:50:42;11.73;;;8.40;;
32365;SDS011;18837;46.832;16.838;2022-12-29T05:53:12;10.40;;;7.87;;
32365;SDS011;18837;46.832;16.838;2022-12-29T05:55:39;11.60;;;8.30;;
32365;SDS011;18837;46.832;16.838;2022-12-29T05:58:04;11.47;;;7.87;;
32365;SDS011;18837;46.832;16.838;2022-12-29T06:00:30;10.53;;;7.87;;
32365;SDS011;18837;46.832;16.838;2022-12-29T06:02:56;12.27;;;8.93;;
32365;SDS011;18837;46.832;16.838;2022-12-29T06:05:22;12.93;;;8.27;;
32365;SDS011;18837;46.832;16.838;2022-12-29T06:07:47;11.57;;;8.77;;
32365;SDS011;18837;46.832;16.838;2022-12-29T06:10:13;12.43;;;9.10;;
32365;SDS011;18837;46.832;16.838;2022-12-29T06:12:39;11.27;;;8.57;;
32365;SDS011;18837;46.832;16.838;2022-12-29T06:15:05;11.43;;;8.10;;
32365;SDS011;18837;46.832;16.838;2022-12-29T06:17:31;10.43;;;8.27;;
32365;SDS011;18837;46.832;16.838;2022-12-29T06:19:57;11.97;;;9.03;;
32365;SDS011;18837;46.832;16.838;2022-12-29T06:22:23;12.73;;;8.33;;
32365;SDS011;18837;46.832;16.838;2022-12-29T06:24:49;12.00;;;8.40;;
32365;SDS011;18837;46.832;16.838;2022-12-29T06:27:15;9.80;;;7.97;;
32365;SDS011;18837;46.832;16.838;2022-12-29T06:29:41;12.47;;;9.03;;
32365;SDS011;18837;46.832;16.838;2022-12-29T06:32:07;11.50;;;8.30;;
32365;SDS011;18837;46.832;16.838;2022-12-29T06:34:33;10.73;;;8.60;;
32365;SDS011;18837;46.832;16.838;2022-12-29T06:36:59;11.73;;;8.33;;
32365;SDS011;18837;46.832;16.838;2022-12-29T06:39:26;12.30;;;9.00;;
32365;SDS011;18837;46.832;16.838;2022-12-29T06:41:52;10.93;;;7.97;;
32365;SDS011;18837;46.832;16.838;2022-12-29T06:44:19;11.63;;;8.77;;
32365;SDS011;18837;46.832;16.838;2022-12-29T06:46:45;11.47;;;8.50;;
32365;SDS011;18837;46.832;16.838;2022-12-29T06:49:11;11.70;;;8.67;;
32365;SDS011;18837;46.832;16.838;2022-12-29T06:51:37;11.87;;;8.90;;
32365;SDS011;18837;46.832;16.838;2022-12-29T06:54:04;10.83;;;8.53;;
32365;SDS011;18837;46.832;16.838;2022-12-29T06:56:29;11.40;;;8.60;;
32365;SDS011;18837;46.832;16.838;2022-12-29T06:58:55;10.73;;;8.53;;
32365;SDS011;18837;46.832;16.838;2022-12-29T07:01:21;11.73;;;9.10;;
32365;SDS011;18837;46.832;16.838;2022-12-29T07:03:47;11.97;;;9.47;;
32365;SDS011;18837;46.832;16.838;2022-12-29T07:06:13;13.73;;;9.37;;
32365;SDS011;18837;46.832;16.838;2022-12-29T07:08:39;13.40;;;9.57;;
32365;SDS011;18837;46.832;16.838;2022-12-29T07:11:05;13.40;;;9.73;;
32365;SDS011;18837;46.832;16.838;2022-12-29T07:13:32;10.70;;;8.93;;
32365;SDS011;18837;46.832;16.838;2022-12-29T07:15:58;11.83;;;9.30;;
32365;SDS011;18837;46.832;16.838;2022-12-29T07:18:24;11.83;;;9.70;;
32365;SDS011;18837;46.832;16.838;2022-12-29T07:20:50;11.50;;;9.33;;
32365;SDS011;18837;46.832;16.838;2022-12-29T07:23:15;16.03;;;9.10;;
32365;SDS011;18837;46.832;16.838;2022-12-29T07:25:41;12.60;;;9.40;;
32365;SDS011;18837;46.832;16.838;2022-12-29T07:28:07;12.27;;;9.40;;
32365;SDS011;18837;46.832;16.838;2022-12-29T07:30:33;12.80;;;9.40;;
32365;SDS011;18837;46.832;16.838;2022-12-29T07:32:58;14.63;;;9.83;;
32365;SDS011;18837;46.832;16.838;2022-12-29T07:35:24;21.37;;;15.03;;
32365;SDS011;18837;46.832;16.838;2022-12-29T07:37:50;17.93;;;12.90;;
32365;SDS011;18837;46.832;16.838;2022-12-29T07:40:16;16.67;;;11.70;;
32365;SDS011;18837;46.832;16.838;2022-12-29T07:42:41;16.80;;;12.00;;
32365;SDS011;18837;46.832;16.838;2022-12-29T07:45:07;18.93;;;12.13;;
32365;SDS011;18837;46.832;16.838;2022-12-29T07:47:34;14.53;;;12.03;;
32365;SDS011;18837;46.832;16.838;2022-12-29T07:50:00;14.83;;;11.20;;
32365;SDS011;18837;46.832;16.838;2022-12-29T07:52:26;19.57;;;12.43;;
32365;SDS011;18837;46.832;16.838;2022-12-29T07:54:51;17.53;;;12.03;;
32365;SDS011;18837;46.832;16.838;2022-12-29T07:57:17;15.17;;;12.27;;
32365;SDS011;18837;46.832;16.838;2022-12-29T07:59:43;18.90;;;12.80;;
32365;SDS011;18837;46.832;16.838;2022-12-29T09:37:02;17.13;;;12.83;;
32365;SDS011;18837;46.832;16.838;2022-12-29T09:39:28;15.10;;;11.80;;
32365;SDS011;18837;46.832;16.838;2022-12-29T09:44:42;14.77;;;11.07;;
32365;SDS011;18837;46.832;16.838;2022-12-29T09:47:24;14.43;;;10.53;;
32365;SDS011;18837;46.832;16.838;2022-12-29T09:49:55;14.60;;;10.00;;
32365;SDS011;18837;46.832;16.838;2022-12-29T09:53:02;13.20;;;9.50;;
32365;SDS011;18837;46.832;16.838;2022-12-29T09:58:21;14.30;;;9.90;;
32365;SDS011;18837;46.832;16.838;2022-12-29T10:01:14;14.97;;;9.90;;
32365;SDS011;18837;46.832;16.838;2022-12-29T10:04:06;13.47;;;9.77;;
32365;SDS011;18837;46.832;16.838;2022-12-29T10:09:20;14.80;;;10.37;;
32365;SDS011;18837;46.832;16.838;2022-12-29T10:12:26;13.03;;;9.20;;
32365;SDS011;18837;46.832;16.838;2022-12-29T10:23:44;8.87;;;7.10;;
32365;SDS011;18837;46.832;16.838;2022-12-29T10:26:23;9.70;;;7.50;;
32365;SDS011;18837;46.832;16.838;2022-12-29T10:31:22;10.20;;;7.63;;
32365;SDS011;18837;46.832;16.838;2022-12-29T10:33:56;10.70;;;7.33;;
32365;SDS011;18837;46.832;16.838;2022-12-29T10:44:58;8.20;;;5.60;;
32365;SDS011;18837;46.832;16.838;2022-12-29T10:47:25;8.10;;;6.20;;
32365;SDS011;18837;46.832;16.838;2022-12-29T10:49:56;7.73;;;5.77;;
32365;SDS011;18837;46.832;16.838;2022-12-29T10:52:23;8.90;;;6.50;;
32365;SDS011;18837;46.832;16.838;2022-12-29T10:55:00;9.03;;;6.53;;
32365;SDS011;18837;46.832;16.838;2022-12-29T10:57:37;9.77;;;6.83;;
32365;SDS011;18837;46.832;16.838;2022-12-29T11:00:13;9.43;;;5.87;;
32365;SDS011;18837;46.832;16.838;2022-12-29T11:02:52;6.60;;;5.13;;
32365;SDS011;18837;46.832;16.838;2022-12-29T11:08:17;8.37;;;6.30;;
32365;SDS011;18837;46.832;16.838;2022-12-29T11:11:08;7.83;;;5.77;;
32365;SDS011;18837;46.832;16.838;2022-12-29T11:17:00;7.43;;;6.13;;
32365;SDS011;18837;46.832;16.838;2022-12-29T11:19:29;8.67;;;6.57;;
32365;SDS011;18837;46.832;16.838;2022-12-29T11:22:13;12.13;;;7.80;;
32365;SDS011;18837;46.832;16.838;2022-12-29T11:24:51;9.63;;;7.17;;
32365;SDS011;18837;46.832;16.838;2022-12-29T11:27:25;9.63;;;6.70;;
32365;SDS011;18837;46.832;16.838;2022-12-29T11:29:56;9.00;;;6.53;;
32365;SDS011;18837;46.832;16.838;2022-12-29T11:32:23;8.93;;;6.47;;
32365;SDS011;18837;46.832;16.838;2022-12-29T11:34:50;8.00;;;6.00;;
32365;SDS011;18837;46.832;16.838;2022-12-29T11:37:18;8.27;;;5.73;;
32365;SDS011;18837;46.832;16.838;2022-12-29T11:40:15;8.63;;;6.20;;
32365;SDS011;18837;46.832;16.838;2022-12-29T11:48:18;7.77;;;6.07;;
32365;SDS011;18837;46.832;16.838;2022-12-29T11:50:55;10.10;;;7.03;;
32365;SDS011;18837;46.832;16.838;2022-12-29T11:53:27;8.80;;;6.90;;
32365;SDS011;18837;46.832;16.838;2022-12-29T11:56:13;9.23;;;6.63;;
32365;SDS011;18837;46.832;16.838;2022-12-29T11:58:41;8.03;;;6.23;;
32365;SDS011;18837;46.832;16.838;2022-12-29T12:01:13;8.60;;;6.20;;
32365;SDS011;18837;46.832;16.838;2022-12-29T12:04:02;6.70;;;5.07;;
32365;SDS011;18837;46.832;16.838;2022-12-29T12:06:44;7.30;;;5.23;;
32365;SDS011;18837;46.832;16.838;2022-12-29T12:09:25;8.37;;;5.03;;
32365;SDS011;18837;46.832;16.838;2022-12-29T12:12:05;8.73;;;5.67;;
32365;SDS011;18837;46.832;16.838;2022-12-29T12:14:46;8.97;;;6.53;;
32365;SDS011;18837;46.832;16.838;2022-12-29T12:17:23;9.33;;;6.70;;
32365;SDS011;18837;46.832;16.838;2022-12-29T12:26:42;9.17;;;5.43;;
32365;SDS011;18837;46.832;16.838;2022-12-29T12:32:21;7.80;;;5.57;;
32365;SDS011;18837;46.832;16.838;2022-12-29T12:35:13;5.80;;;4.60;;
32365;SDS011;18837;46.832;16.838;2022-12-29T12:37:54;7.70;;;5.33;;
32365;SDS011;18837;46.832;16.838;2022-12-29T12:40:34;8.10;;;5.43;;
32365;SDS011;18837;46.832;16.838;2022-12-29T12:43:29;6.77;;;5.03;;
32365;SDS011;18837;46.832;16.838;2022-12-29T12:54:43;8.10;;;5.57;;
32365;SDS011;18837;46.832;16.838;2022-12-29T13:00:33;7.20;;;5.40;;
32365;SDS011;18837;46.832;16.838;2022-12-29T13:06:15;7.07;;;5.10;;
32365;SDS011;18837;46.832;16.838;2022-12-29T13:17:23;7.07;;;4.90;;
32365;SDS011;18837;46.832;16.838;2022-12-29T13:20:02;6.33;;;4.80;;
32365;SDS011;18837;46.832;16.838;2022-12-29T13:22:48;6.73;;;4.43;;
32365;SDS011;18837;46.832;16.838;2022-12-29T13:25:48;7.00;;;4.83;;
32365;SDS011;18837;46.832;16.838;2022-12-29T13:34:30;6.93;;;4.23;;
32365;SDS011;18837;46.832;16.838;2022-12-29T13:37:14;6.40;;;4.60;;
32365;SDS011;18837;46.832;16.838;2022-12-29T13:39:54;5.30;;;4.57;;
32365;SDS011;18837;46.832;16.838;2022-12-29T13:42:24;6.40;;;4.77;;
32365;SDS011;18837;46.832;16.838;2022-12-29T13:44:54;5.97;;;4.60;;
32365;SDS011;18837;46.832;16.838;2022-12-29T13:47:46;6.17;;;4.53;;
32365;SDS011;18837;46.832;16.838;2022-12-29T13:50:24;6.63;;;4.67;;
32365;SDS011;18837;46.832;16.838;2022-12-29T13:58:13;6.17;;;4.50;;
32365;SDS011;18837;46.832;16.838;2022-12-29T14:01:00;5.30;;;4.33;;
32365;SDS011;18837;46.832;16.838;2022-12-29T14:06:58;5.70;;;4.17;;
32365;SDS011;18837;46.832;16.838;2022-12-29T14:09:55;6.17;;;4.23;;
32365;SDS011;18837;46.832;16.838;2022-12-29T14:15:01;9.87;;;5.50;;
32365;SDS011;18837;46.832;16.838;2022-12-29T14:17:37;7.80;;;5.17;;
32365;SDS011;18837;46.832;16.838;2022-12-29T14:20:05;8.97;;;5.80;;
32365;SDS011;18837;46.832;16.838;2022-12-29T14:22:55;8.57;;;5.43;;
32365;SDS011;18837;46.832;16.838;2022-12-29T14:28:26;8.63;;;4.93;;
32365;SDS011;18837;46.832;16.838;2022-12-29T14:31:00;8.03;;;5.63;;
32365;SDS011;18837;46.832;16.838;2022-12-29T14:33:31;18.60;;;14.45;;
32365;SDS011;18837;46.832;16.838;2022-12-29T14:36:21;15.63;;;12.20;;
32365;SDS011;18837;46.832;16.838;2022-12-29T14:38:47;18.73;;;12.60;;
32365;SDS011;18837;46.832;16.838;2022-12-29T14:43:57;14.77;;;11.20;;
32365;SDS011;18837;46.832;16.838;2022-12-29T14:46:45;14.47;;;10.07;;
32365;SDS011;18837;46.832;16.838;2022-12-29T14:49:31;15.90;;;10.07;;
32365;SDS011;18837;46.832;16.838;2022-12-29T14:52:14;12.20;;;9.43;;
32365;SDS011;18837;46.832;16.838;2022-12-29T14:54:42;15.13;;;9.27;;
32365;SDS011;18837;46.832;16.838;2022-12-29T14:57:11;13.07;;;9.87;;
32365;SDS011;18837;46.832;16.838;2022-12-29T14:59:43;12.83;;;9.50;;
32365;SDS011;18837;46.832;16.838;2022-12-29T15:02:19;13.63;;;9.90;;
32365;SDS011;18837;46.832;16.838;2022-12-29T15:04:47;13.63;;;9.50;;
32365;SDS011;18837;46.832;16.838;2022-12-29T15:07:13;13.37;;;9.20;;
32365;SDS011;18837;46.832;16.838;2022-12-29T15:09:53;12.30;;;9.40;;
32365;SDS011;18837;46.832;16.838;2022-12-29T15:17:53;10.80;;;8.10;;
32365;SDS011;18837;46.832;16.838;2022-12-29T15:22:56;10.10;;;7.80;;
32365;SDS011;18837;46.832;16.838;2022-12-29T15:25:26;12.60;;;8.27;;
32365;SDS011;18837;46.832;16.838;2022-12-29T15:27:52;10.07;;;8.03;;
32365;SDS011;18837;46.832;16.838;2022-12-29T15:30:22;10.27;;;7.70;;
32365;SDS011;18837;46.832;16.838;2022-12-29T15:32:49;11.20;;;8.00;;
32365;SDS011;18837;46.832;16.838;2022-12-29T15:38:01;10.93;;;8.00;;
32365;SDS011;18837;46.832;16.838;2022-12-29T15:40:44;9.73;;;6.90;;
32365;SDS011;18837;46.832;16.838;2022-12-29T15:43:23;10.87;;;7.77;;
32365;SDS011;18837;46.832;16.838;2022-12-29T15:46:31;10.63;;;7.60;;
32365;SDS011;18837;46.832;16.838;2022-12-29T15:48:57;9.30;;;7.13;;
32365;SDS011;18837;46.832;16.838;2022-12-29T15:51:32;10.70;;;7.83;;
32365;SDS011;18837;46.832;16.838;2022-12-29T15:54:00;10.70;;;7.37;;
32365;SDS011;18837;46.832;16.838;2022-12-29T15:56:30;8.90;;;6.97;;
32365;SDS011;18837;46.832;16.838;2022-12-29T15:58:58;9.47;;;7.20;;
32365;SDS011;18837;46.832;16.838;2022-12-29T16:01:32;10.07;;;7.10;;
32365;SDS011;18837;46.832;16.838;2022-12-29T16:04:00;9.83;;;7.27;;
32365;SDS011;18837;46.832;16.838;2022-12-29T16:06:30;9.43;;;6.77;;
32365;SDS011;18837;46.832;16.838;2022-12-29T16:11:40;8.57;;;6.23;;
32365;SDS011;18837;46.832;16.838;2022-12-29T16:14:17;9.20;;;6.63;;
32365;SDS011;18837;46.832;16.838;2022-12-29T16:16:45;9.47;;;6.87;;
32365;SDS011;18837;46.832;16.838;2022-12-29T16:22:02;7.87;;;6.60;;
32365;SDS011;18837;46.832;16.838;2022-12-29T16:24:44;9.63;;;6.70;;
32365;SDS011;18837;46.832;16.838;2022-12-29T16:29:51;9.60;;;6.67;;
32365;SDS011;18837;46.832;16.838;2022-12-29T16:32:29;8.73;;;7.37;;
32365;SDS011;18837;46.832;16.838;2022-12-29T16:37:40;8.63;;;6.70;;
32365;SDS011;18837;46.832;16.838;2022-12-29T16:40:25;9.27;;;6.93;;
32365;SDS011;18837;46.832;16.838;2022-12-29T16:42:54;8.47;;;6.60;;
32365;SDS011;18837;46.832;16.838;2022-12-29T16:50:40;8.83;;;6.87;;
32365;SDS011;18837;46.832;16.838;2022-12-29T16:53:18;8.17;;;6.57;;
32365;SDS011;18837;46.832;16.838;2022-12-29T16:55:50;9.83;;;6.67;;
32365;SDS011;18837;46.832;16.838;2022-12-29T16:58:18;7.77;;;6.37;;
32365;SDS011;18837;46.832;16.838;2022-12-29T17:00:57;8.87;;;6.87;;
32365;SDS011;18837;46.832;16.838;2022-12-29T17:03:35;8.57;;;6.93;;
32365;SDS011;18837;46.832;16.838;2022-12-29T17:06:05;8.37;;;6.47;;
32365;SDS011;18837;46.832;16.838;2022-12-29T17:08:39;7.63;;;5.87;;
32365;SDS011;18837;46.832;16.838;2022-12-29T17:11:08;10.33;;;6.33;;
32365;SDS011;18837;46.832;16.838;2022-12-29T17:16:58;9.50;;;6.83;;
32365;SDS011;18837;46.832;16.838;2022-12-29T17:19:35;9.53;;;7.00;;
32365;SDS011;18837;46.832;16.838;2022-12-29T17:22:03;9.03;;;6.80;;
32365;SDS011;18837;46.832;16.838;2022-12-29T17:24:36;9.50;;;5.63;;
32365;SDS011;18837;46.832;16.838;2022-12-29T17:27:02;9.10;;;6.60;;
32365;SDS011;18837;46.832;16.838;2022-12-29T17:29:29;7.73;;;5.90;;
32365;SDS011;18837;46.832;16.838;2022-12-29T17:32:03;7.33;;;5.93;;
32365;SDS011;18837;46.832;16.838;2022-12-29T17:34:31;7.73;;;5.97;;
32365;SDS011;18837;46.832;16.838;2022-12-29T17:36:57;8.30;;;6.50;;
32365;SDS011;18837;46.832;16.838;2022-12-29T17:39:23;7.57;;;5.37;;
32365;SDS011;18837;46.832;16.838;2022-12-29T17:41:49;10.90;;;5.83;;
32365;SDS011;18837;46.832;16.838;2022-12-29T17:44:15;9.83;;;6.10;;
32365;SDS011;18837;46.832;16.838;2022-12-29T17:46:44;10.33;;;6.83;;
32365;SDS011;18837;46.832;16.838;2022-12-29T17:49:14;8.33;;;6.27;;
32365;SDS011;18837;46.832;16.838;2022-12-29T17:51:42;9.23;;;6.03;;
32365;SDS011;18837;46.832;16.838;2022-12-29T17:54:22;8.03;;;6.73;;
32365;SDS011;18837;46.832;16.838;2022-12-29T17:56:49;8.93;;;7.03;;
32365;SDS011;18837;46.832;16.838;2022-12-29T17:59:16;9.17;;;7.17;;
32365;SDS011;18837;46.832;16.838;2022-12-29T18:01:43;11.13;;;6.80;;
32365;SDS011;18837;46.832;16.838;2022-12-29T18:04:14;9.13;;;6.00;;
32365;SDS011;18837;46.832;16.838;2022-12-29T18:06:41;7.80;;;5.73;;
32365;SDS011;18837;46.832;16.838;2022-12-29T18:09:08;7.93;;;6.27;;
32365;SDS011;18837;46.832;16.838;2022-12-29T18:11:38;6.90;;;5.33;;
32365;SDS011;18837;46.832;16.838;2022-12-29T18:14:10;7.93;;;6.20;;
32365;SDS011;18837;46.832;16.838;2022-12-29T18:16:39;10.53;;;6.63;;
32365;SDS011;18837;46.832;16.838;2022-12-29T18:19:06;9.73;;;6.53;;
32365;SDS011;18837;46.832;16.838;2022-12-29T18:21:33;9.63;;;6.03;;
32365;SDS011;18837;46.832;16.838;2022-12-29T18:24:01;8.80;;;5.50;;
32365;SDS011;18837;46.832;16.838;2022-12-29T18:26:27;8.30;;;6.10;;
32365;SDS011;18837;46.832;16.838;2022-12-29T18:28:58;12.17;;;6.33;;
32365;SDS011;18837;46.832;16.838;2022-12-29T18:31:25;7.70;;;6.13;;
32365;SDS011;18837;46.832;16.838;2022-12-29T18:33:55;7.87;;;6.13;;
32365;SDS011;18837;46.832;16.838;2022-12-29T18:36:22;9.20;;;6.40;;
32365;SDS011;18837;46.832;16.838;2022-12-29T18:38:50;10.07;;;6.53;;
32365;SDS011;18837;46.832;16.838;2022-12-29T18:41:19;8.20;;;6.33;;
32365;SDS011;18837;46.832;16.838;2022-12-29T18:43:50;7.70;;;5.93;;
32365;SDS011;18837;46.832;16.838;2022-12-29T18:46:16;7.13;;;5.80;;
32365;SDS011;18837;46.832;16.838;2022-12-29T18:48:42;7.77;;;5.73;;
32365;SDS011;18837;46.832;16.838;2022-12-29T18:51:22;8.07;;;6.20;;
32365;SDS011;18837;46.832;16.838;2022-12-29T18:53:50;8.57;;;6.07;;
32365;SDS011;18837;46.832;16.838;2022-12-29T18:56:18;6.70;;;5.73;;
32365;SDS011;18837;46.832;16.838;2022-12-29T18:58:45;7.00;;;5.47;;
32365;SDS011;18837;46.832;16.838;2022-12-29T19:01:28;8.27;;;6.17;;
32365;SDS011;18837;46.832;16.838;2022-12-29T19:03:54;8.50;;;6.60;;
32365;SDS011;18837;46.832;16.838;2022-12-29T19:06:20;7.57;;;6.47;;
32365;SDS011;18837;46.832;16.838;2022-12-29T19:08:47;6.93;;;5.60;;
32365;SDS011;18837;46.832;16.838;2022-12-29T19:11:12;7.50;;;5.50;;